Time;durP1;ratioP1;P1;durP2;ratioP2;P2;SDS_P1;SDS_P2;PMS_P1;PMS_P2;Temp;Humidity;BMP_temperature;BMP_pressure;BME280_temperature;BME280_humidity;BME280_pressure;Samples;Min_cycle;Max_cycle;Signal;HPM_P1;HPM_P2
2022/06/24 00:00:42;;;;;;;4.15;1.10;;;18.90;99.90;;;;;;5120108;28;19957;-68
2022/06/24 00:03:18;;;;;;;3.30;1.88;;;19.00;99.90;;;;;;5119836;28;20023;-69
2022/06/24 00:05:46;;;;;;;3.30;1.52;;;19.10;99.90;;;;;;5118879;28;20476;-69
2022/06/24 00:08:12;;;;;;;3.80;1.40;;;19.10;99.90;;;;;;5120121;28;20072;-69
2022/06/24 00:10:38;;;;;;;5.25;1.95;;;19.20;99.90;;;;;;5120046;28;20028;-70
2022/06/24 00:13:05;;;;;;;3.95;1.30;;;19.20;99.90;;;;;;5119989;28;20111;-69
2022/06/24 00:15:33;;;;;;;2.75;1.40;;;19.20;99.90;;;;;;5119915;28;20384;-70
2022/06/24 00:18:12;;;;;;;4.88;1.30;;;19.30;99.90;;;;;;5117432;28;20020;-69
2022/06/24 00:20:46;;;;;;;5.25;1.20;;;19.40;99.90;;;;;;5117163;28;20055;-70
2022/06/24 00:23:13;;;;;;;2.85;1.30;;;19.40;99.90;;;;;;5116074;28;20464;-70
2022/06/24 00:25:38;;;;;;;4.70;1.40;;;19.40;99.90;;;;;;5117443;28;20362;-69
2022/06/24 00:28:11;;;;;;;4.25;1.10;;;19.30;99.90;;;;;;5115682;28;20161;-70
2022/06/24 00:30:51;;;;;;;5.50;1.80;;;19.30;99.90;;;;;;5116722;28;20040;-70
2022/06/24 00:33:21;;;;;;;3.40;1.35;;;19.30;99.90;;;;;;5116523;28;20039;-69
2022/06/24 00:35:59;;;;;;;6.38;1.95;;;19.20;99.90;;;;;;5114763;28;20050;-69
2022/06/24 00:38:36;;;;;;;3.53;1.30;;;19.20;99.90;;;;;;5116210;28;20016;-69
2022/06/24 00:41:06;;;;;;;4.32;1.58;;;19.20;99.90;;;;;;5116436;28;20019;-69
2022/06/24 00:43:42;;;;;;;5.00;1.52;;;19.20;99.90;;;;;;5116096;28;20102;-69
2022/06/24 00:46:18;;;;;;;5.38;1.30;;;19.20;99.90;;;;;;5115940;28;20495;-69
2022/06/24 00:48:48;;;;;;;5.60;1.43;;;19.30;99.90;;;;;;5116193;28;20106;-69
2022/06/24 00:51:14;;;;;;;5.75;1.60;;;19.30;99.90;;;;;;5115956;28;20065;-69
2022/06/24 00:53:45;;;;;;;2.63;0.98;;;19.30;99.90;;;;;;5114872;28;20082;-69
2022/06/24 00:56:13;;;;;;;4.38;1.60;;;19.40;99.90;;;;;;5115785;28;20047;-69
2022/06/24 00:58:39;;;;;;;5.05;1.65;;;19.30;99.90;;;;;;5115858;28;20073;-69
2022/06/24 01:01:05;;;;;;;3.50;1.40;;;19.30;99.90;;;;;;5116040;28;20468;-69
2022/06/24 01:03:42;;;;;;;5.03;1.27;;;19.20;99.90;;;;;;5115803;28;20039;-69
2022/06/24 01:06:09;;;;;;;5.07;1.23;;;19.30;99.90;;;;;;5115188;28;20403;-69
2022/06/24 01:08:35;;;;;;;4.18;1.20;;;19.30;99.90;;;;;;5114738;28;20016;-70
2022/06/24 01:11:01;;;;;;;4.30;1.67;;;19.30;99.90;;;;;;5115791;28;20030;-69
2022/06/24 01:13:26;;;;;;;;;;;19.30;99.90;;;;;;5120881;28;20526;-71
2022/06/24 01:15:53;;;;;;;4.20;1.20;;;19.30;99.90;;;;;;5120652;28;19903;-71
2022/06/24 01:18:18;;;;;;;;;;;19.30;99.90;;;;;;5116904;28;20015;-69
2022/06/24 01:20:44;;;;;;;7.88;2.30;;;19.30;99.90;;;;;;5115846;28;19910;-69
2022/06/24 01:23:09;;;;;;;3.75;1.60;;;19.30;99.90;;;;;;5115913;28;20103;-69
2022/06/24 01:25:35;;;;;;;4.47;1.27;;;19.40;99.90;;;;;;5115648;28;20031;-69
2022/06/24 01:28:01;;;;;;;2.97;1.45;;;19.40;99.90;;;;;;5114155;28;20029;-69
2022/06/24 01:30:27;;;;;;;6.05;1.20;;;19.50;99.90;;;;;;5115011;28;20176;-69
2022/06/24 01:32:54;;;;;;;2.65;1.20;;;19.50;99.90;;;;;;5114986;28;20020;-69
2022/06/24 01:35:20;;;;;;;3.78;1.33;;;19.50;99.90;;;;;;5113657;28;20115;-70
2022/06/24 01:37:46;;;;;;;4.47;1.23;;;19.50;99.90;;;;;;5116736;28;20020;-70
2022/06/24 01:40:12;;;;;;;;;;;19.60;99.90;;;;;;5118446;28;20107;-71
2022/06/24 01:42:38;;;;;;;3.58;1.58;;;19.60;99.90;;;;;;5116576;28;20375;-70
2022/06/24 01:45:04;;;;;;;4.55;1.40;;;19.60;99.90;;;;;;5113814;28;20032;-69
2022/06/24 01:47:30;;;;;;;3.60;1.38;;;19.60;99.90;;;;;;5114409;28;20081;-68
2022/06/24 01:49:55;;;;;;;3.15;1.85;;;19.60;99.90;;;;;;5115113;28;20023;-69
2022/06/24 01:52:21;;;;;;;2.72;1.20;;;19.60;99.90;;;;;;5113570;28;20023;-68
2022/06/24 01:54:46;;;;;;;3.85;1.50;;;19.60;99.90;;;;;;5115208;28;20388;-69
2022/06/24 01:57:12;;;;;;;5.90;2.13;;;19.60;99.90;;;;;;5115241;28;20036;-69
2022/06/24 01:59:38;;;;;;;5.43;1.40;;;19.70;99.90;;;;;;5115488;28;20418;-69
2022/06/24 02:02:04;;;;;;;3.92;1.45;;;19.70;99.90;;;;;;5114291;28;20051;-69
2022/06/24 02:04:29;;;;;;;1.92;1.23;;;19.70;99.90;;;;;;5115270;28;20027;-69
2022/06/24 02:06:55;;;;;;;6.15;1.60;;;19.70;99.90;;;;;;5115100;28;20028;-70
2022/06/24 02:09:20;;;;;;;6.18;1.85;;;19.80;99.90;;;;;;5114930;28;20032;-69
2022/06/24 02:14:30;;;;;;;5.30;1.40;;;19.70;99.90;;;;;;5114800;28;20034;-69
2022/06/24 02:16:56;;;;;;;3.80;1.27;;;20.00;99.90;;;;;;5114511;28;20020;-69
2022/06/24 02:19:22;;;;;;;4.50;1.20;;;20.20;99.90;;;;;;5114250;28;20491;-69
2022/06/24 02:21:47;;;;;;;3.90;1.67;;;20.10;99.90;;;;;;5114691;28;20028;-69
2022/06/24 02:24:13;;;;;;;4.43;1.42;;;19.90;99.90;;;;;;5113990;28;20031;-69
2022/06/24 02:26:46;;;;;;;4.13;1.40;;;19.80;99.90;;;;;;5112906;28;20422;-69
2022/06/24 02:29:12;;;;;;;5.28;1.77;;;19.70;99.90;;;;;;5114482;28;20032;-69
2022/06/24 02:31:38;;;;;;;;;;;19.60;99.90;;;;;;5114382;28;20467;-69
2022/06/24 02:34:04;;;;;;;5.53;1.38;;;19.60;99.90;;;;;;5112662;28;19950;-69
2022/06/24 02:36:29;;;;;;;2.72;1.45;;;19.60;99.90;;;;;;5114147;28;20023;-69
2022/06/24 02:38:55;;;;;;;3.95;1.50;;;19.50;99.90;;;;;;5114081;28;20027;-69
2022/06/24 02:41:20;;;;;;;2.90;1.55;;;19.50;99.90;;;;;;5111892;28;20057;-68
2022/06/24 02:43:46;;;;;;;5.95;1.50;;;19.60;99.90;;;;;;5113976;28;20057;-68
2022/06/24 02:46:16;;;;;;;4.03;1.63;;;19.50;99.90;;;;;;5113644;28;20058;-68
2022/06/24 02:48:42;;;;;;;3.05;1.63;;;19.40;99.90;;;;;;5112217;28;20121;-68
2022/06/24 02:51:10;;;;;;;;;;;19.40;99.90;;;;;;5112619;28;20069;-68
2022/06/24 02:53:35;;;;;;;;;;;19.40;99.90;;;;;;5114057;28;19980;-68
2022/06/24 02:56:04;;;;;;;5.78;1.98;;;19.40;99.90;;;;;;5112154;28;20359;-68
2022/06/24 02:58:33;;;;;;;5.22;1.48;;;19.40;99.90;;;;;;5112789;28;20040;-68
2022/06/24 03:01:00;;;;;;;10.48;1.90;;;19.40;99.90;;;;;;5112309;28;20044;-68
2022/06/24 03:03:26;;;;;;;6.72;1.80;;;19.60;99.90;;;;;;5113506;28;20472;-68
2022/06/24 03:05:52;;;;;;;4.55;1.50;;;19.50;99.90;;;;;;5112157;28;20465;-69
2022/06/24 03:08:19;;;;;;;4.50;2.05;;;19.40;99.90;;;;;;5116529;28;20028;-69
2022/06/24 03:10:45;;;;;;;4.63;1.95;;;19.40;99.90;;;;;;5116369;28;20064;-69
2022/06/24 03:13:11;;;;;;;5.50;2.00;;;19.50;99.90;;;;;;5113804;28;20027;-69
2022/06/24 03:15:37;;;;;;;;;;;19.40;99.90;;;;;;5114154;28;20036;-69
2022/06/24 03:18:03;;;;;;;3.72;1.48;;;19.30;99.90;;;;;;5113476;28;20006;-69
2022/06/24 03:20:29;;;;;;;3.85;1.70;;;19.20;99.90;;;;;;5113735;28;20027;-69
2022/06/24 03:22:54;;;;;;;4.85;1.77;;;19.50;99.90;;;;;;5113745;28;20035;-69
2022/06/24 03:25:20;;;;;;;6.95;2.00;;;19.30;99.90;;;;;;5113956;28;20035;-69
2022/06/24 03:27:46;;;;;;;2.92;1.40;;;19.20;99.90;;;;;;5113340;28;20027;-68
2022/06/24 03:30:12;;;;;;;6.57;2.05;;;19.20;99.90;;;;;;5113423;28;20496;-68
2022/06/24 03:32:38;;;;;;;5.15;1.52;;;19.20;99.90;;;;;;5114263;28;20039;-68
2022/06/24 03:35:05;;;;;;;;;;;19.10;99.90;;;;;;5114692;28;20024;-69
2022/06/24 03:37:31;;;;;;;8.27;2.13;;;19.10;99.90;;;;;;5114031;28;20000;-69
2022/06/24 03:39:57;;;;;;;7.60;1.88;;;19.10;99.90;;;;;;5113340;28;20028;-69
2022/06/24 03:42:23;;;;;;;;;;;19.20;99.90;;;;;;5113817;28;20094;-69
2022/06/24 03:44:48;;;;;;;4.05;1.92;;;19.20;99.90;;;;;;5111870;28;19946;-69
2022/06/24 03:47:14;;;;;;;5.85;1.98;;;19.20;99.90;;;;;;5113185;28;20476;-69
2022/06/24 03:49:40;;;;;;;5.75;2.05;;;19.10;99.90;;;;;;5113541;28;20481;-68
2022/06/24 03:52:06;;;;;;;5.07;2.20;;;19.20;99.90;;;;;;5111799;28;20480;-68
2022/06/24 03:54:32;;;;;;;3.50;1.80;;;19.20;99.90;;;;;;5116674;28;20024;-69
2022/06/24 03:56:58;;;;;;;5.63;2.10;;;19.30;99.90;;;;;;5117030;28;20433;-69
2022/06/24 03:59:23;;;;;;;5.00;1.42;;;19.50;99.90;;;;;;5116953;28;20051;-68
2022/06/24 04:01:49;;;;;;;5.97;2.40;;;19.50;99.90;;;;;;5117042;28;20030;-68
2022/06/24 04:04:15;;;;;;;6.07;2.13;;;19.50;99.90;;;;;;5115408;28;20036;-68
2022/06/24 04:06:40;;;;;;;3.15;1.83;;;19.50;99.90;;;;;;5115531;28;20174;-69
2022/06/24 04:09:06;;;;;;;3.53;1.92;;;19.40;99.90;;;;;;5117012;28;20193;-67
2022/06/24 04:11:31;;;;;;;3.78;1.80;;;19.30;99.90;;;;;;5116820;28;20027;-67
2022/06/24 04:13:59;;;;;;;5.07;1.88;;;19.20;99.90;;;;;;5116955;28;20027;-67
2022/06/24 04:16:25;;;;;;;5.05;1.70;;;19.30;99.90;;;;;;5115522;28;20543;-65
2022/06/24 04:18:50;;;;;;;5.22;2.00;;;19.20;99.90;;;;;;5116611;28;20051;-64
2022/06/24 04:21:17;;;;;;;3.80;1.67;;;19.10;99.90;;;;;;5116849;28;20027;-65
2022/06/24 04:23:43;;;;;;;4.32;1.83;;;19.20;99.90;;;;;;5116660;28;20035;-64
2022/06/24 04:26:09;;;;;;;3.80;1.90;;;19.20;99.90;;;;;;5116529;28;20026;-63
2022/06/24 04:28:36;;;;;;;5.55;1.90;;;19.30;99.90;;;;;;5117416;28;20106;-64
2022/06/24 04:31:02;;;;;;;2.53;1.50;;;19.40;99.90;;;;;;5116940;28;20024;-63
2022/06/24 04:33:27;;;;;;;4.43;1.75;;;19.50;99.90;;;;;;5116317;28;20081;-63
2022/06/24 04:35:53;;;;;;;5.00;2.30;;;19.60;99.90;;;;;;5116096;28;20023;-63
2022/06/24 04:38:19;;;;;;;5.68;2.30;;;19.60;99.90;;;;;;5116105;28;20059;-65
2022/06/24 04:40:44;;;;;;;6.90;2.33;;;19.70;99.90;;;;;;5116051;28;20028;-65
2022/06/24 04:43:10;;;;;;;8.18;1.98;;;19.60;99.90;;;;;;5116550;28;20031;-66
2022/06/24 04:45:36;;;;;;;8.73;2.40;;;19.80;99.90;;;;;;5115787;28;20092;-65
2022/06/24 04:48:02;;;;;;;4.25;2.13;;;19.90;99.90;;;;;;5115910;28;20400;-64
2022/06/24 04:50:28;;;;;;;7.70;2.53;;;19.90;99.90;;;;;;5115955;28;20028;-64
2022/06/24 04:52:54;;;;;;;10.55;2.88;;;20.00;99.90;;;;;;5114520;28;20122;-64
2022/06/24 04:55:20;;;;;;;6.88;2.80;;;20.00;99.90;;;;;;5115823;28;20022;-64
2022/06/24 04:57:47;;;;;;;6.80;2.90;;;20.00;99.90;;;;;;5115937;28;20032;-63
2022/06/24 05:00:13;;;;;;;6.97;3.00;;;20.00;99.90;;;;;;5116326;28;20376;-68
2022/06/24 05:02:39;;;;;;;8.65;2.70;;;19.90;99.90;;;;;;5116146;28;20479;-63
2022/06/24 05:05:05;;;;;;;13.85;3.13;;;19.80;99.90;;;;;;5115305;28;20023;-63
2022/06/24 05:07:31;;;;;;;5.95;2.70;;;19.90;99.90;;;;;;5116181;28;20034;-61
2022/06/24 05:09:57;;;;;;;8.10;2.80;;;19.80;99.90;;;;;;5115878;28;20387;-63
2022/06/24 05:12:22;;;;;;;7.20;3.25;;;19.90;99.90;;;;;;5116104;28;20043;-62
2022/06/24 05:14:48;;;;;;;8.90;3.38;;;19.80;99.90;;;;;;5116150;28;20058;-62
2022/06/24 05:17:13;;;;;;;6.03;3.10;;;19.80;99.90;;;;;;5115813;28;20027;-62
2022/06/24 05:19:39;;;;;;;6.43;3.40;;;19.90;99.90;;;;;;5115398;28;20023;-62
2022/06/24 05:22:05;;;;;;;12.05;3.15;;;19.80;99.90;;;;;;5115373;28;20037;-62
2022/06/24 05:24:30;;;;;;;8.40;2.88;;;19.80;99.90;;;;;;5115416;28;20048;-62
2022/06/24 05:26:56;;;;;;;14.05;6.38;;;19.80;99.90;;;;;;5115702;28;20567;-62
2022/06/24 05:29:22;;;;;;;9.68;3.38;;;19.80;99.90;;;;;;5115150;28;20438;-62
2022/06/24 05:31:48;;;;;;;10.25;3.55;;;19.70;99.90;;;;;;5115138;28;20032;-62
2022/06/24 05:34:14;;;;;;;13.07;3.70;;;19.90;99.90;;;;;;5115082;28;20381;-62
2022/06/24 05:36:40;;;;;;;6.35;3.28;;;19.90;99.90;;;;;;5115043;28;20020;-62
2022/06/24 05:39:06;;;;;;;7.63;3.50;;;19.90;99.90;;;;;;5114907;28;20019;-62
2022/06/24 05:41:32;;;;;;;7.40;3.30;;;20.00;99.90;;;;;;5115383;28;20311;-62
2022/06/24 05:43:58;;;;;;;10.48;3.20;;;20.00;99.90;;;;;;5114907;28;20062;-62
2022/06/24 05:46:23;;;;;;;6.82;3.08;;;20.10;99.90;;;;;;5114544;28;20449;-62
2022/06/24 05:48:49;;;;;;;10.65;3.40;;;20.00;99.90;;;;;;5115029;28;20036;-62
2022/06/24 05:51:16;;;;;;;9.50;3.15;;;20.10;99.90;;;;;;5114755;28;20028;-63
2022/06/24 05:56:27;;;;;;;12.30;3.60;;;20.20;99.90;;;;;;5114867;28;20243;-63
2022/06/24 05:58:53;;;;;;;9.25;3.47;;;20.30;99.90;;;;;;5114911;28;20489;-62
2022/06/24 06:01:19;;;;;;;13.52;3.30;;;20.50;99.90;;;;;;5114503;28;20106;-62
2022/06/24 06:03:45;;;;;;;8.30;3.42;;;20.70;99.90;;;;;;5114781;28;20072;-61
2022/06/24 06:06:10;;;;;;;7.13;2.83;;;20.90;99.90;;;;;;5114502;28;20107;-62
2022/06/24 06:08:37;;;;;;;10.80;2.88;;;21.00;99.90;;;;;;5114972;28;20490;-63
2022/06/24 06:11:14;;;;;;;;;;;21.30;99.90;;;;;;5113687;28;20468;-63
2022/06/24 06:13:41;;;;;;;7.97;3.00;;;21.40;99.90;;;;;;5114662;28;20344;-65
2022/06/24 06:16:07;;;;;;;5.93;3.00;;;21.60;99.90;;;;;;5113593;28;20024;-64
2022/06/24 06:18:33;;;;;;;8.25;2.95;;;21.60;99.90;;;;;;5114576;28;20123;-64
2022/06/24 06:21:03;;;;;;;8.52;3.13;;;21.60;99.90;;;;;;5113185;28;20145;-63
2022/06/24 06:23:29;;;;;;;10.77;3.30;;;21.50;99.90;;;;;;5114402;28;20024;-63
2022/06/24 06:25:56;;;;;;;5.82;2.90;;;21.30;99.90;;;;;;5114507;28;20106;-65
2022/06/24 06:28:21;;;;;;;5.55;3.10;;;21.20;99.90;;;;;;5114146;28;20051;-63
2022/06/24 06:30:47;;;;;;;8.88;3.10;;;21.20;99.90;;;;;;5113843;28;20412;-64
2022/06/24 06:33:12;;;;;;;21.98;4.50;;;21.10;99.90;;;;;;5114065;28;20468;-65
2022/06/24 06:35:38;;;;;;;10.32;3.33;;;21.00;99.90;;;;;;5114215;28;20436;-61
2022/06/24 06:38:03;;;;;;;7.13;3.53;;;21.00;99.90;;;;;;5114877;28;20070;-64
2022/06/24 06:40:29;;;;;;;5.93;3.00;;;21.10;99.90;;;;;;5115928;28;20121;-64
2022/06/24 06:42:55;;;;;;;7.78;2.90;;;21.20;99.90;;;;;;5115957;28;20037;-65
2022/06/24 06:45:21;;;;;;;15.10;3.47;;;21.30;99.90;;;;;;5115568;28;20028;-64
2022/06/24 06:47:47;;;;;;;10.32;4.00;;;21.40;99.90;;;;;;5114316;28;20042;-64
2022/06/24 06:50:13;;;;;;;8.90;4.05;;;21.50;99.90;;;;;;5113601;28;20027;-64
2022/06/24 06:52:40;;;;;;;10.88;3.33;;;21.40;99.90;;;;;;5113739;28;20113;-63
2022/06/24 06:55:06;;;;;;;7.57;3.25;;;21.50;99.90;;;;;;5113509;28;20046;-63
2022/06/24 06:57:32;;;;;;;6.97;2.92;;;21.70;99.90;;;;;;5114130;28;20016;-64
2022/06/24 06:59:57;;;;;;;11.80;3.42;;;21.90;99.90;;;;;;5113220;28;20035;-63
2022/06/24 07:02:23;;;;;;;8.23;2.90;;;22.00;99.90;;;;;;5113677;28;20063;-63
2022/06/24 07:04:49;;;;;;;10.57;2.78;;;22.20;99.90;;;;;;5113551;28;20027;-64
2022/06/24 07:07:14;;;;;;;6.82;2.65;;;22.30;99.90;;;;;;5113408;28;20045;-63
2022/06/24 07:09:40;;;;;;;;;;;22.40;99.90;;;;;;5113933;28;20070;-64
2022/06/24 07:12:06;;;;;;;7.10;2.53;;;22.50;99.90;;;;;;5114095;28;19907;-64
2022/06/24 07:14:32;;;;;;;;;;;22.70;99.90;;;;;;5113873;28;20442;-64
2022/06/24 07:16:57;;;;;;;6.38;2.60;;;22.90;99.90;;;;;;5113429;28;19946;-64
2022/06/24 07:19:23;;;;;;;;;;;22.80;99.90;;;;;;5113970;28;20073;-63
2022/06/24 07:21:49;;;;;;;6.03;2.15;;;22.60;99.90;;;;;;5113712;28;19955;-63
2022/06/24 07:24:15;;;;;;;10.07;2.63;;;22.50;99.90;;;;;;5113438;28;20051;-64
2022/06/24 07:26:40;;;;;;;10.10;2.72;;;22.30;99.90;;;;;;5113792;28;20024;-65
2022/06/24 07:29:06;;;;;;;5.72;2.30;;;22.30;99.90;;;;;;5117572;28;20027;-64
2022/06/24 07:31:31;;;;;;;;;;;22.30;99.90;;;;;;5116480;28;20034;-63
2022/06/24 07:33:57;;;;;;;5.15;2.17;;;22.30;99.90;;;;;;5117465;28;19915;-64
2022/06/24 07:36:22;;;;;;;;;;;22.30;99.90;;;;;;5117734;28;20023;-63
2022/06/24 07:38:48;;;;;;;7.32;2.67;;;22.40;99.90;;;;;;5117446;28;19993;-64
2022/06/24 07:41:14;;;;;;;;;;;22.60;99.90;;;;;;5116421;28;20031;-64
2022/06/24 07:43:39;;;;;;;8.85;2.63;;;22.70;99.90;;;;;;5117240;28;19904;-63
2022/06/24 07:46:08;;;;;;;;;;;23.00;99.90;;;;;;5117762;28;20062;-61
2022/06/24 07:48:36;;;;;;;5.40;2.17;;;23.50;99.90;;;;;;5117180;28;20291;-62
2022/06/24 07:51:13;;;;;;;9.95;1.80;;;24.20;99.90;;;;;;5117153;28;20365;-59
2022/06/24 07:53:40;;;;;;;7.65;2.58;;;24.50;99.90;;;;;;5117303;28;20047;-62
2022/06/24 07:58:50;;;;;;;7.38;2.30;;;23.90;99.90;;;;;;5117845;28;20031;-61
2022/06/24 08:01:16;;;;;;;;;;;23.50;99.90;;;;;;5118596;28;20024;-61
2022/06/24 08:03:42;;;;;;;6.13;1.98;;;23.50;99.90;;;;;;5118464;28;19907;-62
2022/06/24 08:06:07;;;;;;;;;;;24.00;99.90;;;;;;5118915;28;20032;-63
2022/06/24 08:08:33;;;;;;;5.47;1.60;;;24.90;99.90;;;;;;5118673;28;19914;-62
2022/06/24 08:10:58;;;;;;;5.85;2.13;;;26.60;99.90;;;;;;5116902;28;20035;-62
2022/06/24 08:13:24;;;;;;;5.28;2.03;;;28.00;99.90;;;;;;5116621;28;20032;-62
2022/06/24 08:15:50;;;;;;;4.97;1.90;;;29.50;99.80;;;;;;5116774;28;20020;-63
2022/06/24 08:18:17;;;;;;;6.88;1.90;;;31.00;95.70;;;;;;5116751;28;20027;-60
2022/06/24 08:20:42;;;;;;;6.63;1.63;;;30.10;95.90;;;;;;5116691;28;20464;-63
2022/06/24 08:23:08;;;;;;;5.00;1.80;;;29.80;96.20;;;;;;5116686;28;20032;-64
2022/06/24 08:25:34;;;;;;;6.68;2.33;;;30.50;95.70;;;;;;5116406;28;20047;-63
2022/06/24 08:27:59;;;;;;;5.28;1.85;;;31.70;93.50;;;;;;5117073;28;20068;-63
2022/06/24 08:30:25;;;;;;;5.57;1.90;;;31.60;92.90;;;;;;5116688;28;20468;-63
2022/06/24 08:32:51;;;;;;;3.80;1.60;;;30.80;93.00;;;;;;5117327;28;20054;-63
2022/06/24 08:35:17;;;;;;;5.43;1.65;;;30.40;93.50;;;;;;5116448;28;20032;-61
2022/06/24 08:37:42;;;;;;;4.25;1.73;;;30.70;93.50;;;;;;5116873;28;20023;-63
2022/06/24 08:40:09;;;;;;;3.63;1.88;;;31.10;93.10;;;;;;5115783;28;20016;-64
2022/06/24 08:42:38;;;;;;;5.28;1.70;;;31.60;92.10;;;;;;5116579;28;20024;-62
2022/06/24 08:45:04;;;;;;;3.42;1.50;;;32.20;91.50;;;;;;5116283;28;20035;-62
2022/06/24 08:47:29;;;;;;;3.70;1.58;;;31.60;91.40;;;;;;5116248;28;20031;-62
2022/06/24 08:49:55;;;;;;;3.45;1.60;;;31.50;91.10;;;;;;5116088;28;20027;-62
2022/06/24 08:52:21;;;;;;;3.83;1.40;;;32.00;91.00;;;;;;5116107;28;20027;-63
2022/06/24 08:54:49;;;;;;;2.88;1.50;;;32.10;90.80;;;;;;5115822;28;20461;-63
2022/06/24 08:57:14;;;;;;;4.38;1.95;;;31.80;90.60;;;;;;5115964;28;20020;-62
2022/06/24 08:59:42;;;;;;;3.67;1.85;;;31.50;90.50;;;;;;5115755;28;20388;-63
2022/06/24 09:02:08;;;;;;;6.13;1.60;;;30.70;91.10;;;;;;5115915;28;20050;-62
2022/06/24 09:04:33;;;;;;;5.10;2.05;;;29.90;92.20;;;;;;5115595;28;20034;-63
2022/06/24 09:07:00;;;;;;;5.78;1.90;;;29.30;92.70;;;;;;5115577;28;20032;-61
2022/06/24 09:09:26;;;;;;;3.88;1.80;;;29.20;93.40;;;;;;5115940;28;20032;-62
2022/06/24 09:11:57;;;;;;;4.00;1.50;;;29.30;93.30;;;;;;5115949;28;20019;-63
2022/06/24 09:14:41;;;;;;;3.13;1.65;;;29.50;93.20;;;;;;5115549;28;20396;-62
2022/06/24 09:17:07;;;;;;;6.10;1.80;;;31.00;91.90;;;;;;5116193;28;20475;-63
2022/06/24 09:19:33;;;;;;;4.63;1.95;;;32.90;89.20;;;;;;5115808;28;20073;-63
2022/06/24 09:21:59;;;;;;;3.22;1.85;;;34.20;85.80;;;;;;5115519;28;20020;-64
2022/06/24 09:24:44;;;;;;;5.03;1.67;;;35.20;83.00;;;;;;5116120;28;20464;-63
2022/06/24 09:27:09;;;;;;;3.65;1.60;;;36.40;78.30;;;;;;5116234;28;20468;-63
2022/06/24 09:29:35;;;;;;;3.22;1.45;;;36.30;76.30;;;;;;5117475;28;20055;-63
2022/06/24 09:32:04;;;;;;;2.30;1.25;;;35.70;76.80;;;;;;5117367;28;20388;-64
2022/06/24 09:34:30;;;;;;;4.00;1.98;;;35.30;75.80;;;;;;5115173;28;20024;-62
2022/06/24 09:36:56;;;;;;;5.60;2.65;;;35.70;75.60;;;;;;5115686;28;20019;-63
2022/06/24 09:39:22;;;;;;;6.70;1.88;;;36.30;74.40;;;;;;5114753;28;20031;-63
2022/06/24 09:41:50;;;;;;;4.78;1.50;;;36.30;72.00;;;;;;5115223;28;20103;-63
2022/06/24 09:44:17;;;;;;;2.30;1.38;;;35.20;72.70;;;;;;5115701;28;20034;-63
2022/06/24 09:46:42;;;;;;;5.50;1.80;;;34.80;73.00;;;;;;5115485;28;20032;-63
2022/06/24 09:49:13;;;;;;;1.23;1.05;;;35.70;71.60;;;;;;5115394;28;20395;-63
2022/06/24 09:51:40;;;;;;;2.17;1.25;;;36.10;69.80;;;;;;5114883;28;20557;-63
2022/06/24 09:54:09;;;;;;;4.18;1.20;;;37.10;67.60;;;;;;5115652;28;20079;-63
2022/06/24 09:56:38;;;;;;;5.68;1.40;;;37.30;66.40;;;;;;5114435;28;20051;-63
2022/06/24 10:01:50;;;;;;;2.47;1.27;;;37.20;65.30;;;;;;5114645;28;20042;-63
2022/06/24 10:04:20;;;;;;;4.38;1.38;;;37.50;64.50;;;;;;5114385;28;20092;-63
2022/06/24 10:06:48;;;;;;;2.55;1.10;;;37.80;63.90;;;;;;5114430;28;20083;-63
2022/06/24 10:09:18;;;;;;;2.95;1.48;;;38.10;62.90;;;;;;5115101;28;20449;-63
2022/06/24 10:11:47;;;;;;;2.13;1.20;;;38.50;61.80;;;;;;5114558;28;20039;-63
2022/06/24 10:14:12;;;;;;;3.08;1.38;;;37.80;62.60;;;;;;5114591;28;20016;-63
2022/06/24 10:16:41;;;;;;;3.22;1.60;;;37.40;63.70;;;;;;5114361;28;20073;-62
2022/06/24 10:19:09;;;;;;;2.50;1.30;;;37.70;62.80;;;;;;5114392;28;20016;-63
2022/06/24 10:21:35;;;;;;;2.47;1.35;;;37.90;62.30;;;;;;5114638;28;20020;-62
2022/06/24 10:24:14;;;;;;;1.83;1.20;;;38.30;61.60;;;;;;5114329;28;20020;-62
2022/06/24 10:26:42;;;;;;;2.90;1.05;;;38.70;61.80;;;;;;5114780;28;20072;-62
2022/06/24 10:29:07;;;;;;;2.65;1.23;;;37.70;60.90;;;;;;5114292;28;20023;-63
2022/06/24 10:31:48;;;;;;;2.17;1.30;;;38.10;61.30;;;;;;5114711;28;20043;-62
2022/06/24 10:34:22;;;;;;;4.55;1.17;;;38.50;60.30;;;;;;5114782;28;20024;-62
2022/06/24 10:36:57;;;;;;;1.50;1.20;;;38.30;59.20;;;;;;5114347;28;20441;-63
2022/06/24 10:39:26;;;;;;;3.33;1.13;;;38.80;59.20;;;;;;5114755;28;20031;-63
2022/06/24 10:42:06;;;;;;;2.42;1.45;;;38.70;59.60;;;;;;5114912;28;20357;-63
2022/06/24 10:44:33;;;;;;;2.72;1.20;;;38.70;59.60;;;;;;5113982;28;20099;-63
2022/06/24 10:47:04;;;;;;;3.20;1.33;;;38.20;60.30;;;;;;5114781;28;20056;-63
2022/06/24 10:49:52;;;;;;;3.58;1.50;;;37.30;61.40;;;;;;5115109;28;20031;-62
2022/06/24 10:53:00;;;;;;;3.53;1.30;;;37.70;60.60;;;;;;5116627;28;20027;-63
2022/06/24 10:55:33;;;;;;;3.78;1.10;;;36.40;61.20;;;;;;5093771;28;20047;-63
2022/06/24 10:58:26;;;;;;;3.22;1.30;;;35.00;63.50;;;;;;5092626;28;20020;-63
2022/06/24 11:00:54;;;;;;;3.60;1.50;;;33.90;64.30;;;;;;5090437;28;20588;-64
2022/06/24 11:03:33;;;;;;;3.00;1.30;;;33.30;66.10;;;;;;5091411;28;20028;-62
2022/06/24 11:05:59;;;;;;;3.35;1.10;;;34.10;65.30;;;;;;5091492;28;20116;-63
2022/06/24 11:08:26;;;;;;;2.40;1.10;;;35.00;62.70;;;;;;5091201;28;20032;-64
2022/06/24 11:10:53;;;;;;;2.10;0.90;;;35.30;62.20;;;;;;5091290;28;20031;-63
2022/06/24 11:13:21;;;;;;;2.60;0.98;;;34.70;62.30;;;;;;5090823;28;20033;-64
2022/06/24 11:15:49;;;;;;;2.97;1.08;;;31.90;66.60;;;;;;5091544;28;20031;-62
2022/06/24 11:18:24;;;;;;;2.03;1.20;;;31.00;68.50;;;;;;5091989;28;20028;-64
2022/06/24 11:21:04;;;;;;;4.75;1.35;;;30.60;69.80;;;;;;5091456;28;20476;-63
2022/06/24 11:23:32;;;;;;;2.95;1.58;;;30.30;70.10;;;;;;5097198;28;20510;-64
2022/06/24 11:26:03;;;;;;;2.13;1.40;;;30.00;71.20;;;;;;5108960;28;20037;-64
2022/06/24 11:28:32;;;;;;;1.20;1.00;;;29.90;71.40;;;;;;5114206;28;20024;-62
2022/06/24 11:31:26;;;;;;;2.25;1.20;;;29.70;71.80;;;;;;5113594;28;20024;-63
2022/06/24 11:34:12;;;;;;;2.15;1.52;;;29.60;72.70;;;;;;5113591;28;20023;-65
2022/06/24 11:36:41;;;;;;;3.42;1.90;;;29.20;73.80;;;;;;5113975;28;20150;-65
2022/06/24 11:39:09;;;;;;;2.65;1.30;;;29.10;74.10;;;;;;5113744;28;20391;-64
2022/06/24 11:41:47;;;;;;;3.45;1.42;;;29.00;73.30;;;;;;5113915;28;20024;-64
2022/06/24 11:44:13;;;;;;;1.33;1.00;;;29.10;73.50;;;;;;5113632;28;20050;-64
2022/06/24 11:46:39;;;;;;;3.67;1.10;;;29.10;73.90;;;;;;5113524;28;20483;-64
2022/06/24 11:49:13;;;;;;;3.05;1.10;;;29.10;73.80;;;;;;5113802;28;20027;-63
2022/06/24 11:51:40;;;;;;;4.22;3.17;;;29.00;74.90;;;;;;5113770;28;20019;-64
2022/06/24 11:54:08;;;;;;;1.80;0.90;;;28.90;74.20;;;;;;5113328;28;20440;-63
2022/06/24 11:56:37;;;;;;;2.83;1.50;;;29.00;74.00;;;;;;5113201;28;20054;-64
2022/06/24 11:59:05;;;;;;;3.92;1.02;;;29.10;74.80;;;;;;5113302;28;20016;-64
2022/06/24 12:01:32;;;;;;;2.63;1.02;;;29.00;74.50;;;;;;5112071;28;20408;-63
2022/06/24 12:04:00;;;;;;;2.13;0.90;;;28.80;74.40;;;;;;5114677;28;20414;-62
2022/06/24 12:06:28;;;;;;;1.92;1.05;;;28.70;74.40;;;;;;5113698;28;20015;-65
2022/06/24 12:08:54;;;;;;;2.95;1.00;;;28.60;74.60;;;;;;5113379;28;20049;-63
2022/06/24 12:11:22;;;;;;;3.22;1.10;;;28.30;74.50;;;;;;5113611;28;20432;-64
2022/06/24 12:13:58;;;;;;;2.50;0.82;;;28.20;75.50;;;;;;5114230;28;20404;-63
2022/06/24 12:16:28;;;;;;;4.32;2.63;;;28.20;76.40;;;;;;5117393;28;20020;-64
2022/06/24 12:18:54;;;;;;;4.25;1.08;;;28.30;75.90;;;;;;5117685;28;20468;-63
2022/06/24 12:21:25;;;;;;;3.00;1.05;;;28.20;76.30;;;;;;5118241;28;20411;-63
2022/06/24 12:23:51;;;;;;;2.28;0.95;;;28.20;77.10;;;;;;5118290;28;20028;-63
2022/06/24 12:26:23;;;;;;;2.45;1.17;;;28.00;77.70;;;;;;5117045;28;20464;-64
2022/06/24 12:28:59;;;;;;;1.63;1.00;;;28.20;78.40;;;;;;5116591;28;20027;-62
2022/06/24 12:31:25;;;;;;;1.92;0.98;;;28.10;77.70;;;;;;5116518;28;20101;-64
2022/06/24 12:33:53;;;;;;;2.15;1.15;;;28.10;78.50;;;;;;5116167;28;20077;-64
2022/06/24 12:36:22;;;;;;;2.67;1.20;;;28.10;76.60;;;;;;5116065;28;20020;-61
2022/06/24 12:38:47;;;;;;;3.42;1.27;;;27.90;77.50;;;;;;5116236;28;20093;-62
2022/06/24 12:41:17;;;;;;;2.42;1.20;;;27.80;78.10;;;;;;5116130;28;20028;-63
2022/06/24 12:43:57;;;;;;;3.70;1.48;;;27.70;78.10;;;;;;5116131;28;20031;-62
2022/06/24 12:46:37;;;;;;;6.82;1.20;;;27.70;78.60;;;;;;5116190;28;20039;-64
2022/06/24 12:51:58;;;;;;;5.05;1.35;;;27.70;78.10;;;;;;5118251;28;20158;-64
2022/06/24 12:54:23;;;;;;;2.40;1.17;;;27.60;79.00;;;;;;5124600;28;20047;-65
2022/06/24 12:56:49;;;;;;;3.80;1.17;;;27.80;79.90;;;;;;5121565;28;20027;-65
2022/06/24 12:59:15;;;;;;;2.72;1.30;;;27.90;78.40;;;;;;5115707;28;20630;-65
2022/06/24 13:01:43;;;;;;;1.83;0.90;;;28.00;79.10;;;;;;5114481;28;20020;-65
2022/06/24 13:04:10;;;;;;;1.48;1.05;;;28.00;78.60;;;;;;5116248;28;20020;-65
2022/06/24 13:06:36;;;;;;;3.30;1.10;;;28.00;77.70;;;;;;5115777;28;20057;-66